createdAt,value
2019-04-05T00:00:42.110Z,6.063843
2019-04-05T00:01:42.238Z,6.073914
2019-04-05T00:02:42.302Z,6.073914
2019-04-05T00:03:42.397Z,6.073914
2019-04-05T00:04:42.458Z,6.094055
2019-04-05T00:05:42.575Z,6.073914
2019-04-05T00:06:42.649Z,6.063843
2019-04-05T00:07:42.736Z,6.063843
2019-04-05T00:08:42.788Z,6.063843
2019-04-05T00:09:42.873Z,6.053772
2019-04-05T00:10:42.958Z,6.053772
2019-04-05T00:11:43.070Z,6.02356
2019-04-05T00:12:43.118Z,6.013489
2019-04-05T00:13:43.230Z,6.013489
2019-04-05T00:14:43.335Z,6.013489
2019-04-05T00:15:43.435Z,5.993347
2019-04-05T00:16:43.433Z,5.973206
2019-04-05T00:17:43.529Z,5.973206
2019-04-05T00:18:43.602Z,5.953064
2019-04-05T00:19:43.730Z,5.973206
2019-04-05T00:20:43.836Z,5.983276
2019-04-05T00:21:43.928Z,5.983276
2019-04-05T00:22:44.011Z,5.993347
2019-04-05T00:23:44.076Z,5.993347
2019-04-05T00:24:44.159Z,5.983276
2019-04-05T00:25:44.309Z,5.983276
2019-04-05T00:26:44.320Z,5.983276
2019-04-05T00:27:44.416Z,5.983276
2019-04-05T00:28:44.533Z,5.973206
2019-04-05T00:29:44.572Z,5.973206
2019-04-05T00:30:44.713Z,5.983276
2019-04-05T00:31:44.807Z,5.983276
2019-04-05T00:32:44.912Z,5.983276
2019-04-05T00:33:45.035Z,5.973206
2019-04-05T00:34:45.180Z,5.993347
2019-04-05T00:35:45.295Z,5.993347
2019-04-05T00:36:45.432Z,5.993347
2019-04-05T00:37:45.521Z,5.993347
2019-04-05T00:38:45.637Z,5.993347
2019-04-05T00:39:45.730Z,5.993347
2019-04-05T00:40:45.823Z,5.993347
2019-04-05T00:41:45.929Z,5.993347
2019-04-05T00:42:46.046Z,6.013489
2019-04-05T00:43:46.143Z,5.993347
2019-04-05T00:44:46.244Z,5.973206
2019-04-05T00:45:46.341Z,5.973206
2019-04-05T00:46:46.475Z,5.942993
2019-04-05T00:47:46.565Z,5.922852
2019-04-05T00:48:46.640Z,5.942993
2019-04-05T00:49:46.794Z,5.912781
2019-04-05T00:50:46.914Z,5.942993
2019-04-05T00:51:47.056Z,5.973206
2019-04-05T00:52:47.156Z,5.973206
2019-04-05T00:53:47.234Z,5.973206
2019-04-05T00:54:47.328Z,5.973206
2019-04-05T00:55:47.465Z,5.983276
2019-04-05T00:56:47.578Z,5.983276
2019-04-05T00:57:49.465Z,5.983276
2019-04-05T00:58:47.776Z,5.983276
2019-04-05T00:59:47.858Z,5.983276
2019-04-05T01:00:47.964Z,5.953064
2019-04-05T01:01:48.074Z,5.942993
2019-04-05T01:02:48.133Z,5.912781
2019-04-05T01:03:48.189Z,5.922852
2019-04-05T01:04:48.254Z,5.922852
2019-04-05T01:05:48.336Z,5.912781
2019-04-05T01:06:48.336Z,5.922852
2019-04-05T01:07:48.418Z,5.922852
2019-04-05T01:08:48.556Z,5.942993
2019-04-05T01:09:48.677Z,5.942993
2019-04-05T01:10:48.772Z,5.953064
2019-04-05T01:11:48.870Z,5.983276
2019-04-05T01:12:48.954Z,5.973206
2019-04-05T01:13:49.058Z,5.983276
2019-04-05T01:14:49.153Z,5.973206
2019-04-05T01:15:49.242Z,5.973206
2019-04-05T01:16:49.361Z,5.993347
2019-04-05T01:17:49.462Z,5.993347
2019-04-05T01:18:49.551Z,5.983276
2019-04-05T01:19:50.624Z,5.993347
2019-04-05T01:20:49.719Z,5.993347
2019-04-05T01:21:49.850Z,5.993347
2019-04-05T01:22:50.933Z,6.013489
2019-04-05T01:23:50.018Z,6.02356
2019-04-05T01:24:50.093Z,6.02356
2019-04-05T01:25:50.171Z,6.02356
2019-04-05T01:26:50.321Z,6.02356
2019-04-05T01:27:50.426Z,6.02356
2019-04-05T01:28:50.529Z,6.02356
2019-04-05T01:29:50.636Z,6.053772
2019-04-05T01:30:50.731Z,6.053772
2019-04-05T01:31:50.865Z,6.02356
2019-04-05T01:32:50.954Z,6.013489
2019-04-05T01:33:51.048Z,6.02356
2019-04-05T01:34:52.122Z,6.02356
2019-04-05T01:35:51.220Z,6.053772
2019-04-05T01:36:51.341Z,6.02356
2019-04-05T01:37:51.444Z,6.053772
2019-04-05T01:38:51.567Z,6.013489
2019-04-05T01:39:51.636Z,6.013489
2019-04-05T01:40:51.722Z,6.013489
2019-04-05T01:41:51.829Z,5.993347
2019-04-05T01:42:51.922Z,5.993347
2019-04-05T01:43:52.024Z,5.993347
2019-04-05T01:44:52.133Z,5.993347
2019-04-05T01:45:53.789Z,5.983276
2019-04-05T01:46:52.309Z,5.983276
2019-04-05T01:47:52.387Z,5.983276
2019-04-05T01:48:52.480Z,5.983276
2019-04-05T01:49:52.587Z,5.993347
2019-04-05T01:50:52.681Z,6.013489
2019-04-05T01:51:52.843Z,5.993347
2019-04-05T01:52:52.928Z,5.993347
2019-04-05T01:53:52.995Z,6.013489
2019-04-05T01:54:53.089Z,5.983276
2019-04-05T01:55:53.183Z,5.983276
2019-04-05T01:56:53.306Z,5.983276
2019-04-05T01:57:53.404Z,5.973206
2019-04-05T01:58:53.517Z,5.973206
2019-04-05T01:59:53.636Z,5.953064
2019-04-05T02:00:53.735Z,5.973206
2019-04-05T02:01:53.859Z,5.953064
2019-04-05T02:02:53.966Z,5.942993
2019-04-05T02:03:54.031Z,5.942993
2019-04-05T02:04:54.126Z,5.942993
2019-04-05T02:05:54.182Z,5.942993
2019-04-05T02:06:54.289Z,5.942993
2019-04-05T02:07:54.378Z,5.942993
2019-04-05T02:08:54.494Z,5.90271
2019-04-05T02:09:54.587Z,5.90271
2019-04-05T02:10:54.668Z,5.90271
2019-04-05T02:11:54.782Z,5.882568
2019-04-05T02:12:54.773Z,5.882568
2019-04-05T02:13:54.873Z,5.882568
2019-04-05T02:14:54.957Z,5.90271
2019-04-05T02:16:05.563Z,5.90271
2019-04-05T02:16:55.110Z,5.90271
2019-04-05T02:17:55.242Z,5.90271
2019-04-05T02:18:55.335Z,5.882568
2019-04-05T02:19:55.435Z,5.842285
2019-04-05T02:20:55.527Z,5.872498
2019-04-05T02:21:55.626Z,5.842285
2019-04-05T02:22:55.647Z,5.842285
2019-04-05T02:23:55.750Z,5.872498
2019-04-05T02:24:55.815Z,5.832214
2019-04-05T02:25:55.888Z,5.842285
2019-04-05T02:26:55.973Z,5.842285
2019-04-05T02:27:56.093Z,5.842285
2019-04-05T02:28:56.185Z,5.842285
2019-04-05T02:29:56.270Z,5.842285
2019-04-05T02:30:56.280Z,5.842285
2019-04-05T02:31:57.366Z,5.842285
2019-04-05T02:32:56.501Z,5.842285
2019-04-05T02:33:56.592Z,5.842285
2019-04-05T02:34:56.697Z,5.842285
2019-04-05T02:35:56.823Z,5.832214
2019-04-05T02:36:56.901Z,5.832214
2019-04-05T02:37:56.954Z,5.832214
2019-04-05T02:38:57.051Z,5.832214
2019-04-05T02:39:57.154Z,5.832214
2019-04-05T02:40:58.719Z,5.812073
2019-04-05T02:41:57.363Z,5.842285
2019-04-05T02:42:57.387Z,5.842285
2019-04-05T02:43:57.477Z,5.842285
2019-04-05T02:44:57.566Z,5.842285
2019-04-05T02:45:57.665Z,5.872498
2019-04-05T02:46:58.730Z,5.882568
2019-04-05T02:47:57.857Z,5.90271
2019-04-05T02:48:57.955Z,5.882568
2019-04-05T02:49:58.048Z,5.912781
2019-04-05T02:50:58.145Z,5.912781
2019-04-05T02:51:58.246Z,5.912781
2019-04-05T02:52:58.371Z,5.90271
2019-04-05T02:53:58.468Z,5.912781
2019-04-05T02:54:58.575Z,5.922852
2019-04-05T02:56:02.461Z,5.912781
2019-04-05T02:56:58.732Z,5.912781
2019-04-05T02:57:58.876Z,5.912781
2019-04-05T02:58:58.959Z,5.922852
2019-04-05T02:59:59.048Z,5.942993
2019-04-05T03:00:59.161Z,5.942993
2019-04-05T03:01:59.280Z,5.942993
2019-04-05T03:02:59.416Z,5.953064
2019-04-05T03:03:59.496Z,5.942993
2019-04-05T03:04:59.575Z,5.942993
2019-04-05T03:05:59.672Z,5.953064
2019-04-05T03:07:00.754Z,5.942993
2019-04-05T03:07:59.900Z,5.942993
2019-04-05T03:08:59.973Z,5.942993
2019-04-05T03:10:00.074Z,5.942993
2019-04-05T03:11:00.174Z,5.912781
2019-04-05T03:12:00.305Z,5.922852
2019-04-05T03:13:00.446Z,5.922852
2019-04-05T03:14:00.597Z,5.942993
2019-04-05T03:15:00.681Z,5.922852
2019-04-05T03:16:00.822Z,5.912781
2019-04-05T03:17:00.901Z,5.912781
2019-04-05T03:18:00.900Z,5.922852
2019-04-05T03:19:00.990Z,5.942993
2019-04-05T03:20:01.081Z,5.942993
2019-04-05T03:21:01.158Z,5.942993
2019-04-05T03:22:01.251Z,5.953064
2019-04-05T03:23:01.399Z,5.953064
2019-04-05T03:24:01.400Z,5.973206
2019-04-05T03:25:01.495Z,5.973206
2019-04-05T03:26:01.618Z,5.983276
2019-04-05T03:27:01.727Z,5.983276
2019-04-05T03:28:01.856Z,5.993347
2019-04-05T03:29:01.971Z,5.993347
2019-04-05T03:30:02.215Z,5.993347
2019-04-05T03:31:02.159Z,5.993347
2019-04-05T03:32:02.339Z,6.013489
2019-04-05T03:33:02.431Z,6.013489
2019-04-05T03:34:02.492Z,6.013489
2019-04-05T03:35:02.577Z,6.013489
2019-04-05T03:36:02.672Z,6.013489
2019-04-05T03:37:02.763Z,6.013489
2019-04-05T03:38:02.915Z,6.02356
2019-04-05T03:39:03.019Z,6.02356
2019-04-05T03:40:03.165Z,6.02356
2019-04-05T03:41:03.261Z,6.013489
2019-04-05T03:42:03.353Z,6.013489
2019-04-05T03:43:03.482Z,6.013489
2019-04-05T03:44:03.595Z,6.013489
2019-04-05T03:45:03.706Z,5.993347
2019-04-05T03:46:03.722Z,6.013489
2019-04-05T03:47:03.843Z,6.013489
2019-04-05T03:48:04.003Z,6.013489
2019-04-05T03:49:03.976Z,5.993347
2019-04-05T03:50:04.128Z,6.02356
2019-04-05T03:51:04.097Z,6.02356
2019-04-05T03:52:04.204Z,6.02356
2019-04-05T03:53:04.362Z,6.02356
2019-04-05T03:54:04.332Z,6.02356
2019-04-05T03:55:04.440Z,6.02356
2019-04-05T03:56:04.545Z,6.02356
2019-04-05T03:57:04.646Z,6.053772
2019-04-05T03:58:04.804Z,6.053772
2019-04-05T03:59:04.924Z,6.053772
2019-04-05T04:00:05.022Z,6.053772
2019-04-05T04:01:05.097Z,6.053772
2019-04-05T04:02:05.211Z,6.053772
2019-04-05T04:03:05.309Z,6.063843
2019-04-05T04:04:05.293Z,6.073914
2019-04-05T04:05:05.407Z,6.063843
2019-04-05T04:06:05.587Z,6.063843
2019-04-05T04:07:05.678Z,6.063843
2019-04-05T04:08:05.784Z,6.063843
2019-04-05T04:09:06.768Z,6.063843
2019-04-05T04:10:05.856Z,6.073914
2019-04-05T04:11:05.953Z,6.094055
2019-04-05T04:12:06.071Z,6.094055
2019-04-05T04:13:06.185Z,6.073914
2019-04-05T04:14:07.290Z,6.063843
2019-04-05T04:15:06.408Z,6.073914
2019-04-05T04:16:06.480Z,6.094055
2019-04-05T04:17:12.419Z,6.073914
2019-04-05T04:18:06.658Z,6.104126
2019-04-05T04:19:06.644Z,6.094055
2019-04-05T04:20:06.729Z,6.104126
2019-04-05T04:21:06.831Z,6.094055
2019-04-05T04:22:06.937Z,6.094055
2019-04-05T04:23:07.034Z,6.073914
2019-04-05T04:24:07.152Z,6.094055
2019-04-05T04:25:07.253Z,6.094055
2019-04-05T04:26:07.340Z,6.073914
2019-04-05T04:27:07.418Z,6.063843
2019-04-05T04:28:07.517Z,6.063843
2019-04-05T04:29:07.665Z,6.053772
2019-04-05T04:30:07.784Z,6.053772
2019-04-05T04:31:07.888Z,6.013489
2019-04-05T04:32:07.994Z,6.013489
2019-04-05T04:33:08.099Z,6.02356
2019-04-05T04:34:08.086Z,6.053772
2019-04-05T04:35:08.073Z,6.053772
2019-04-05T04:36:08.185Z,6.02356
2019-04-05T04:37:08.276Z,6.02356
2019-04-05T04:38:08.376Z,6.02356
2019-04-05T04:39:08.535Z,6.053772
2019-04-05T04:40:08.657Z,6.053772
2019-04-05T04:41:08.787Z,6.053772
2019-04-05T04:42:08.911Z,6.063843
2019-04-05T04:43:09.068Z,6.063843
2019-04-05T04:44:09.206Z,6.073914
2019-04-05T04:45:12.241Z,6.073914
2019-04-05T04:46:09.386Z,6.073914
2019-04-05T04:47:09.495Z,6.073914
2019-04-05T04:48:10.581Z,6.063843
2019-04-05T04:49:09.705Z,6.063843
2019-04-05T04:50:09.808Z,6.063843
2019-04-05T04:51:09.917Z,6.063843
2019-04-05T04:52:10.027Z,6.073914
2019-04-05T04:53:10.138Z,6.053772
2019-04-05T04:54:10.283Z,6.053772
2019-04-05T04:55:10.386Z,6.02356
2019-04-05T04:56:10.500Z,6.053772
2019-04-05T04:57:10.604Z,6.053772
2019-04-05T04:58:10.711Z,6.02356
2019-04-05T04:59:10.833Z,6.053772
2019-04-05T05:00:10.842Z,6.02356
2019-04-05T05:01:10.954Z,6.02356
2019-04-05T05:02:11.067Z,6.02356
2019-04-05T05:03:11.177Z,6.013489
2019-04-05T05:04:11.329Z,6.013489
2019-04-05T05:05:11.430Z,6.013489
2019-04-05T05:06:11.532Z,6.013489
2019-04-05T05:07:11.630Z,6.013489
2019-04-05T05:08:11.744Z,6.02356
2019-04-05T05:09:11.864Z,6.013489
2019-04-05T05:10:11.963Z,6.02356
2019-04-05T05:11:14.598Z,6.02356
2019-04-05T05:12:12.182Z,6.063843
2019-04-05T05:13:12.343Z,6.063843
2019-04-05T05:14:12.411Z,6.063843
2019-04-05T05:15:12.521Z,6.053772
2019-04-05T05:16:13.617Z,6.053772
2019-04-05T05:17:12.716Z,6.02356
2019-04-05T05:18:13.809Z,6.053772
2019-04-05T05:19:12.931Z,6.063843
2019-04-05T05:20:13.042Z,6.053772
2019-04-05T05:21:13.143Z,6.053772
2019-04-05T05:22:13.242Z,6.02356
2019-04-05T05:23:13.368Z,6.053772
2019-04-05T05:24:13.551Z,6.063843
2019-04-05T05:25:13.617Z,6.053772
2019-04-05T05:26:13.650Z,6.063843
2019-04-05T05:27:13.781Z,6.063843
2019-04-05T05:28:13.880Z,6.063843
2019-04-05T05:29:14.015Z,6.063843
2019-04-05T05:30:14.133Z,6.073914
2019-04-05T05:31:14.259Z,6.073914
2019-04-05T05:32:14.362Z,6.094055
2019-04-05T05:33:14.477Z,6.094055
2019-04-05T05:34:14.647Z,6.104126
2019-04-05T05:35:14.753Z,6.104126
2019-04-05T05:36:14.873Z,6.104126
2019-04-05T05:37:14.979Z,6.134338
2019-04-05T05:38:14.986Z,6.124268
2019-04-05T05:39:15.006Z,6.124268
2019-04-05T05:40:15.010Z,6.15448
2019-04-05T05:41:16.127Z,6.15448
2019-04-05T05:42:15.275Z,6.164551
2019-04-05T05:43:15.422Z,6.15448
2019-04-05T05:44:15.631Z,6.15448
2019-04-05T05:45:15.620Z,6.15448
2019-04-05T05:46:15.607Z,6.15448
2019-04-05T05:47:15.762Z,6.15448
2019-04-05T05:48:15.832Z,6.15448
2019-04-05T05:49:16.896Z,6.164551
2019-04-05T05:50:15.919Z,6.134338
2019-04-05T05:51:15.951Z,6.164551
2019-04-05T05:52:15.986Z,6.174622
2019-04-05T05:53:16.000Z,6.15448
2019-04-05T05:54:16.170Z,6.15448
2019-04-05T05:55:16.169Z,6.164551
2019-04-05T05:56:17.244Z,6.164551
2019-04-05T05:57:16.345Z,6.174622
2019-04-05T05:58:16.385Z,6.174622
2019-04-05T05:59:16.463Z,6.194763
2019-04-05T06:00:17.513Z,6.204834
2019-04-05T06:01:17.538Z,6.204834
2019-04-05T06:02:16.576Z,6.204834
2019-04-05T06:03:16.856Z,6.224976
2019-04-05T06:04:16.724Z,6.224976
2019-04-05T06:05:16.769Z,6.245117
2019-04-05T06:06:16.820Z,6.27533
2019-04-05T06:07:19.872Z,6.255188
2019-04-05T06:08:16.899Z,6.305542
2019-04-05T06:09:16.975Z,6.2854
2019-04-05T06:10:17.078Z,6.305542
2019-04-05T06:11:17.138Z,6.315613
2019-04-05T06:12:17.191Z,6.315613
2019-04-05T06:13:17.257Z,6.315613
2019-04-05T06:14:17.307Z,6.335754
2019-04-05T06:15:17.421Z,6.345825
2019-04-05T06:16:17.510Z,6.335754
2019-04-05T06:17:17.558Z,6.345825
2019-04-05T06:18:17.601Z,6.335754
2019-04-05T06:19:17.655Z,6.355896
2019-04-05T06:20:17.762Z,6.376038
2019-04-05T06:21:17.836Z,6.386108
2019-04-05T06:22:17.893Z,6.386108
2019-04-05T06:23:17.999Z,6.40625
2019-04-05T06:24:18.976Z,6.436462
2019-04-05T06:25:18.046Z,6.466675
2019-04-05T06:26:18.112Z,6.486816
2019-04-05T06:27:18.159Z,6.496887
2019-04-05T06:28:18.200Z,6.517029
2019-04-05T06:29:18.257Z,6.496887
2019-04-05T06:30:18.344Z,6.517029
2019-04-05T06:31:18.416Z,6.5271
2019-04-05T06:32:18.492Z,6.517029
2019-04-05T06:33:30.839Z,6.517029
2019-04-05T06:34:19.569Z,6.517029
2019-04-05T06:35:18.653Z,6.5271
2019-04-05T06:36:18.692Z,6.557312
2019-04-05T06:37:18.741Z,6.597595
2019-04-05T06:38:18.787Z,6.617737
2019-04-05T06:39:20.620Z,6.617737
2019-04-05T06:40:18.915Z,6.597595
2019-04-05T06:41:19.935Z,6.637878
2019-04-05T06:42:18.982Z,6.617737
2019-04-05T06:43:19.044Z,6.668091
2019-04-05T06:44:19.089Z,6.708374
2019-04-05T06:45:19.160Z,6.718445
2019-04-05T06:46:19.231Z,6.738586
2019-04-05T06:47:19.261Z,6.718445
2019-04-05T06:48:19.830Z,6.768799
2019-04-05T06:49:19.351Z,6.768799
2019-04-05T06:50:19.451Z,6.819153
2019-04-05T06:51:19.501Z,6.849365
2019-04-05T06:52:19.571Z,6.869507
2019-04-05T06:53:19.616Z,6.889648
2019-04-05T06:54:19.656Z,6.899719
2019-04-05T06:55:19.749Z,6.919861
2019-04-05T06:56:19.816Z,6.919861
2019-04-05T06:57:19.865Z,6.950073
2019-04-05T06:58:20.237Z,6.960144
2019-04-05T06:59:19.934Z,7.010498
2019-04-05T07:00:19.938Z,6.960144
2019-04-05T07:01:19.982Z,6.960144
2019-04-05T07:02:20.042Z,6.970215
2019-04-05T07:03:20.112Z,7.010498
2019-04-05T07:04:20.176Z,7.04071
2019-04-05T07:05:20.985Z,7.04071
2019-04-05T07:06:20.342Z,7.03064
2019-04-05T07:07:20.389Z,7.010498
2019-04-05T07:08:20.450Z,7.050781
2019-04-05T07:09:20.543Z,7.080994
2019-04-05T07:10:21.627Z,7.131348
2019-04-05T07:11:20.717Z,7.141418
2019-04-05T07:12:20.934Z,7.151489
2019-04-05T07:13:20.803Z,7.191772
2019-04-05T07:14:20.846Z,7.191772
2019-04-05T07:15:20.938Z,7.141418
2019-04-05T07:16:20.989Z,7.181702
2019-04-05T07:17:21.034Z,7.221985
2019-04-05T07:18:31.801Z,7.252197
2019-04-05T07:19:22.241Z,7.262268
2019-04-05T07:20:23.600Z,7.262268
2019-04-05T07:21:21.343Z,7.29248
2019-04-05T07:22:33.438Z,7.29248
2019-04-05T07:23:22.377Z,7.29248
2019-04-05T07:24:21.447Z,7.322693
2019-04-05T07:25:21.587Z,7.373047
2019-04-05T07:26:21.643Z,7.393188
2019-04-05T07:27:21.746Z,7.443542
2019-04-05T07:28:21.794Z,7.473755
2019-04-05T07:29:21.836Z,7.503967
2019-04-05T07:30:21.905Z,7.53418
2019-04-05T07:31:22.937Z,7.564392
2019-04-05T07:32:21.978Z,7.584534
2019-04-05T07:33:22.019Z,7.594604
2019-04-05T07:34:22.059Z,7.624817
2019-04-05T07:35:32.652Z,7.624817
2019-04-05T07:36:22.125Z,7.624817
2019-04-05T07:37:22.204Z,7.655029
2019-04-05T07:38:22.257Z,7.6651
2019-04-05T07:39:22.316Z,7.6651
2019-04-05T07:40:22.380Z,7.655029
2019-04-05T07:41:22.512Z,7.655029
2019-04-05T07:42:22.489Z,7.644958
2019-04-05T07:43:22.541Z,7.655029
2019-04-05T07:44:22.592Z,7.6651
2019-04-05T07:45:22.669Z,7.685242
2019-04-05T07:46:22.711Z,7.685242
2019-04-05T07:47:22.763Z,7.735596
2019-04-05T07:48:22.806Z,7.715454
2019-04-05T07:49:23.860Z,7.745667
2019-04-05T07:50:22.935Z,7.745667
2019-04-05T07:51:22.989Z,7.775879
2019-04-05T07:52:23.027Z,7.765808
2019-04-05T07:53:23.119Z,7.775879
2019-04-05T07:54:23.169Z,7.826233
2019-04-05T07:55:23.293Z,7.836304
2019-04-05T07:56:23.368Z,7.846375
2019-04-05T07:57:23.420Z,7.866516
2019-04-05T07:58:23.463Z,7.846375
2019-04-05T07:59:23.546Z,7.836304
2019-04-05T08:00:23.612Z,7.836304
2019-04-05T08:01:23.689Z,7.876587
2019-04-05T08:02:23.728Z,7.896729
2019-04-05T08:03:23.787Z,7.866516
2019-04-05T08:04:23.832Z,7.826233
2019-04-05T08:05:23.912Z,7.866516
2019-04-05T08:06:24.044Z,7.866516
2019-04-05T08:07:24.132Z,7.876587
2019-04-05T08:08:24.210Z,7.876587
2019-04-05T08:09:25.257Z,7.866516
2019-04-05T08:10:24.309Z,7.836304
2019-04-05T08:11:24.325Z,7.826233
2019-04-05T08:12:24.373Z,7.836304
2019-04-05T08:13:24.425Z,7.826233
2019-04-05T08:14:24.477Z,7.836304
2019-04-05T08:15:24.575Z,7.866516
2019-04-05T08:16:24.662Z,7.876587
2019-04-05T08:17:24.715Z,7.926941
2019-04-05T08:18:24.774Z,7.926941
2019-04-05T08:19:24.865Z,7.926941
2019-04-05T08:20:25.317Z,7.947083
2019-04-05T08:21:25.157Z,7.957153
2019-04-05T08:22:25.198Z,7.977295
2019-04-05T08:23:25.277Z,7.977295
2019-04-05T08:24:25.409Z,7.987366
2019-04-05T08:25:25.460Z,8.007507
2019-04-05T08:26:26.556Z,8.007507
2019-04-05T08:27:25.626Z,8.017578
2019-04-05T08:28:25.740Z,8.017578
2019-04-05T08:29:25.828Z,8.057861
2019-04-05T08:30:26.001Z,8.078003
2019-04-05T08:31:26.093Z,8.047791
2019-04-05T08:32:26.156Z,8.007507
2019-04-05T08:33:26.195Z,8.017578
2019-04-05T08:34:26.247Z,8.078003
2019-04-05T08:35:26.300Z,8.047791
2019-04-05T08:36:26.441Z,8.088074
2019-04-05T08:37:26.494Z,8.198853
2019-04-05T08:38:26.545Z,8.269348
2019-04-05T08:39:27.577Z,8.319702
2019-04-05T08:40:26.720Z,8.42041
2019-04-05T08:41:26.801Z,8.460693
2019-04-05T08:42:26.845Z,8.460693
2019-04-05T08:43:26.905Z,8.450623
2019-04-05T08:44:26.974Z,8.450623
2019-04-05T08:45:27.016Z,8.490906
2019-04-05T08:46:27.107Z,8.500977
2019-04-05T08:47:27.155Z,8.521118
2019-04-05T08:48:27.204Z,8.450623
2019-04-05T08:49:27.244Z,8.390198
2019-04-05T08:50:27.306Z,8.410339
2019-04-05T08:51:27.407Z,8.410339
2019-04-05T08:52:27.465Z,8.440552
2019-04-05T08:53:27.511Z,8.450623
2019-04-05T08:54:32.663Z,8.440552
2019-04-05T08:55:27.581Z,8.390198
2019-04-05T08:56:27.698Z,8.390198
2019-04-05T08:57:27.777Z,8.410339
2019-04-05T08:58:33.063Z,8.42041
2019-04-05T08:59:27.848Z,8.450623
2019-04-05T09:00:27.914Z,8.460693
2019-04-05T09:01:28.052Z,8.490906
2019-04-05T09:02:28.090Z,8.410339
2019-04-05T09:03:28.175Z,8.410339
2019-04-05T09:04:28.239Z,8.42041
2019-04-05T09:05:28.285Z,8.410339
2019-04-05T09:06:28.360Z,8.390198
2019-04-05T09:07:28.413Z,8.339844
2019-04-05T09:08:28.456Z,8.319702
2019-04-05T09:09:28.510Z,8.279419
2019-04-05T09:10:28.559Z,8.309631
2019-04-05T09:11:28.647Z,8.349915
2019-04-05T09:12:28.700Z,8.349915
2019-04-05T09:13:28.755Z,8.349915
2019-04-05T09:14:28.812Z,8.309631
2019-04-05T09:15:28.900Z,8.339844
2019-04-05T09:16:28.977Z,8.349915
2019-04-05T09:17:29.041Z,8.349915
2019-04-05T09:18:29.086Z,8.380127
2019-04-05T09:19:29.138Z,8.390198
2019-04-05T09:20:29.217Z,8.460693
2019-04-05T09:21:29.310Z,8.531189
2019-04-05T09:22:29.363Z,8.561401
2019-04-05T09:23:29.400Z,8.601685
2019-04-05T09:24:29.456Z,8.662109
2019-04-05T09:25:29.503Z,8.692322
2019-04-05T09:26:29.572Z,8.722534
2019-04-05T09:27:29.659Z,8.712463
2019-04-05T09:28:29.721Z,8.742676
2019-04-05T09:29:29.765Z,8.712463
2019-04-05T09:30:29.806Z,8.712463
2019-04-05T09:31:29.849Z,8.722534
2019-04-05T09:32:29.978Z,8.631897
2019-04-05T09:33:31.054Z,8.611755
2019-04-05T09:34:30.099Z,8.591614
2019-04-05T09:35:30.144Z,8.571472
2019-04-05T09:36:30.197Z,8.561401
2019-04-05T09:37:31.283Z,8.521118
2019-04-05T09:38:30.415Z,8.460693
2019-04-05T09:39:30.482Z,8.440552
2019-04-05T09:40:30.590Z,8.440552
2019-04-05T09:41:30.656Z,8.42041
2019-04-05T09:42:30.773Z,8.440552
2019-04-05T09:43:30.821Z,8.450623
2019-04-05T09:44:30.877Z,8.42041
2019-04-05T09:45:30.921Z,8.440552
2019-04-05T09:46:30.962Z,8.440552
2019-04-05T09:47:32.053Z,8.450623
2019-04-05T09:48:31.080Z,8.450623
2019-04-05T09:49:36.819Z,8.460693
2019-04-05T09:50:31.149Z,8.490906
2019-04-05T09:51:31.240Z,8.521118
2019-04-05T09:52:31.364Z,8.521118
2019-04-05T09:53:31.423Z,8.531189
2019-04-05T09:54:31.491Z,8.561401
2019-04-05T09:55:31.552Z,8.591614
2019-04-05T09:56:31.628Z,8.601685
2019-04-05T09:57:31.725Z,8.611755
2019-04-05T09:58:31.782Z,8.631897
2019-04-05T09:59:31.848Z,8.641968
2019-04-05T10:00:31.907Z,8.631897
2019-04-05T10:01:31.956Z,8.631897
2019-04-05T10:02:32.055Z,8.641968
2019-04-05T10:03:32.092Z,8.611755
2019-04-05T10:04:32.184Z,8.611755
2019-04-05T10:05:32.254Z,8.601685
2019-04-05T10:06:32.452Z,8.601685
2019-04-05T10:07:32.480Z,8.631897
2019-04-05T10:08:33.515Z,8.641968
2019-04-05T10:09:32.577Z,8.662109
2019-04-05T10:10:32.643Z,8.692322
2019-04-05T10:11:32.682Z,8.662109
2019-04-05T10:12:32.807Z,8.641968
2019-04-05T10:13:32.854Z,8.692322
2019-04-05T10:14:32.901Z,8.712463
2019-04-05T10:15:32.968Z,8.742676
2019-04-05T10:16:33.012Z,8.772888
2019-04-05T10:17:33.184Z,8.772888
2019-04-05T10:18:33.172Z,8.722534
2019-04-05T10:19:33.211Z,8.692322
2019-04-05T10:20:34.218Z,8.641968
2019-04-05T10:21:33.279Z,8.662109
2019-04-05T10:22:33.377Z,8.641968
2019-04-05T10:23:33.420Z,8.641968
2019-04-05T10:24:33.478Z,8.682251
2019-04-05T10:25:33.521Z,8.712463
2019-04-05T10:26:33.552Z,8.722534
2019-04-05T10:27:33.658Z,8.722534
2019-04-05T10:28:33.693Z,8.722534
2019-04-05T10:29:33.741Z,8.692322
2019-04-05T10:30:34.777Z,8.641968
2019-04-05T10:31:33.815Z,8.611755
2019-04-05T10:32:33.942Z,8.601685
2019-04-05T10:33:33.984Z,8.571472
2019-04-05T10:34:34.043Z,8.561401
2019-04-05T10:35:34.109Z,8.561401
2019-04-05T10:36:34.152Z,8.571472
2019-04-05T10:37:34.214Z,8.591614
2019-04-05T10:38:34.282Z,8.631897
2019-04-05T10:39:34.371Z,8.641968
2019-04-05T10:40:34.433Z,8.662109
2019-04-05T10:41:34.486Z,8.682251
2019-04-05T10:42:34.563Z,8.692322
2019-04-05T10:43:34.642Z,8.722534
2019-04-05T10:44:34.686Z,8.772888
2019-04-05T10:45:34.739Z,8.823242
2019-04-05T10:46:34.793Z,8.873596
2019-04-05T10:47:34.867Z,8.92395
2019-04-05T10:48:35.460Z,8.954163
2019-04-05T10:49:34.983Z,8.954163
2019-04-05T10:50:35.027Z,8.934021
2019-04-05T10:51:35.074Z,8.954163
2019-04-05T10:52:35.154Z,8.974304
2019-04-05T10:53:35.209Z,9.004517
2019-04-05T10:54:35.249Z,9.024658
2019-04-05T10:55:35.250Z,9.034729
2019-04-05T10:56:35.356Z,9.075012
2019-04-05T10:57:35.443Z,9.115295
2019-04-05T10:58:35.555Z,9.105225
2019-04-05T10:59:38.373Z,9.115295
2019-04-05T11:00:36.672Z,9.054871
2019-04-05T11:01:35.781Z,9.054871
2019-04-05T11:02:35.847Z,9.034729
2019-04-05T11:03:35.926Z,9.024658
2019-04-05T11:04:35.976Z,9.004517
2019-04-05T11:05:36.082Z,8.974304
2019-04-05T11:06:36.160Z,8.92395
2019-04-05T11:07:36.319Z,8.893738
2019-04-05T11:08:36.287Z,8.863525
2019-04-05T11:09:36.339Z,8.843384
2019-04-05T11:10:36.417Z,8.752747
2019-04-05T11:11:36.449Z,8.752747
2019-04-05T11:12:36.497Z,8.722534
2019-04-05T11:13:37.593Z,8.692322
2019-04-05T11:14:36.626Z,8.692322
2019-04-05T11:15:36.661Z,8.682251
2019-04-05T11:16:36.708Z,8.712463
2019-04-05T11:17:37.757Z,8.682251
2019-04-05T11:18:36.756Z,8.682251
2019-04-05T11:19:36.798Z,8.682251
2019-04-05T11:20:36.836Z,8.712463
2019-04-05T11:21:36.882Z,8.682251
2019-04-05T11:22:37.918Z,8.631897
2019-04-05T11:23:36.998Z,8.611755
2019-04-05T11:24:37.058Z,8.611755
2019-04-05T11:25:37.118Z,8.611755
2019-04-05T11:26:37.167Z,8.631897
2019-04-05T11:27:37.249Z,8.631897
2019-04-05T11:28:37.329Z,8.611755
2019-04-05T11:29:37.374Z,8.631897
2019-04-05T11:30:37.474Z,8.631897
2019-04-05T11:31:37.567Z,8.662109
2019-04-05T11:32:38.580Z,8.692322
2019-04-05T11:33:37.664Z,8.722534
2019-04-05T11:34:37.734Z,8.752747
2019-04-05T11:35:37.812Z,8.742676
2019-04-05T11:36:37.841Z,8.752747
2019-04-05T11:37:39.438Z,8.772888
2019-04-05T11:38:38.952Z,8.752747
2019-04-05T11:39:37.975Z,8.782959
2019-04-05T11:40:38.069Z,8.79303
2019-04-05T11:41:38.133Z,8.813171
2019-04-05T11:42:38.217Z,8.772888
2019-04-05T11:43:38.351Z,8.813171
2019-04-05T11:44:38.389Z,8.823242
2019-04-05T11:45:39.427Z,8.843384
2019-04-05T11:46:38.449Z,8.782959
2019-04-05T11:47:38.532Z,8.813171